createdAt,value
2023-01-13T00:01:23.178Z,86.46
2023-01-13T00:03:35.938Z,86.39
2023-01-13T00:05:47.784Z,86.65
2023-01-13T00:08:00.091Z,86.53
2023-01-13T00:10:11.876Z,86.36
2023-01-13T00:12:24.278Z,86.89
2023-01-13T00:14:36.584Z,86.86
2023-01-13T00:16:48.164Z,87.31
2023-01-13T00:19:00.364Z,86.96
2023-01-13T00:21:19.829Z,87.33
2023-01-13T00:23:33.816Z,87.29
2023-01-13T00:25:45.973Z,87.25
2023-01-13T00:27:57.865Z,87.31
2023-01-13T00:30:10.220Z,87.22
2023-01-13T00:32:22.263Z,87.48
2023-01-13T00:34:33.916Z,87.55
2023-01-13T00:36:45.857Z,87.68
2023-01-13T00:38:59.167Z,87.50
2023-01-13T00:41:13.315Z,87.41
2023-01-13T00:43:26.942Z,87.17
2023-01-13T00:45:38.943Z,87.19
2023-01-13T00:47:50.633Z,87.24
2023-01-13T00:50:02.724Z,87.40
2023-01-13T00:52:14.516Z,87.30
2023-01-13T00:54:26.632Z,87.28
2023-01-13T00:56:40.554Z,87.05
2023-01-13T00:58:53.687Z,87.23
2023-01-13T01:01:08.971Z,87.06
2023-01-13T01:03:20.942Z,87.07
2023-01-13T01:05:34.212Z,86.81
2023-01-13T01:07:46.467Z,86.89
2023-01-13T01:09:58.154Z,86.91
2023-01-13T01:12:10.252Z,86.92
2023-01-13T01:14:22.302Z,86.78
2023-01-13T01:16:35.143Z,86.86
2023-01-13T01:18:49.519Z,86.74
2023-01-13T01:21:02.123Z,86.71
2023-01-13T01:23:13.809Z,86.92
2023-01-13T01:25:25.496Z,86.86
2023-01-13T01:27:37.287Z,87.02
2023-01-13T01:29:48.975Z,86.83
2023-01-13T01:32:00.763Z,86.73
2023-01-13T01:34:12.457Z,86.91
2023-01-13T01:36:30.125Z,86.83
2023-01-13T01:38:42.540Z,87.16
2023-01-13T01:40:54.480Z,87.24
2023-01-13T01:43:34.837Z,87.46
2023-01-13T01:45:46.838Z,87.36
2023-01-13T01:48:05.943Z,87.15
2023-01-13T01:50:19.592Z,87.17
2023-01-13T01:52:40.021Z,87.35
2023-01-13T01:55:14.136Z,87.22
2023-01-13T01:57:55.724Z,87.19
2023-01-13T02:00:08.741Z,87.41
2023-01-13T02:02:27.671Z,87.27
2023-01-13T02:04:50.547Z,87.42
2023-01-13T02:07:04.030Z,87.50
2023-01-13T02:09:16.146Z,87.45
2023-01-13T02:11:49.058Z,87.43
2023-01-13T02:14:01.156Z,87.50
2023-01-13T02:16:21.284Z,87.39
2023-01-13T02:18:52.179Z,87.45
2023-01-13T02:21:25.783Z,87.49
2023-01-13T02:24:26.313Z,87.50
2023-01-13T02:26:46.192Z,87.51
2023-01-13T02:29:54.815Z,87.84
2023-01-13T02:32:12.751Z,87.55
2023-01-13T02:34:41.742Z,87.53
2023-01-13T02:37:03.984Z,87.44
2023-01-13T02:39:36.655Z,87.50
2023-01-13T02:42:15.788Z,87.85
2023-01-13T02:44:44.268Z,87.72
2023-01-13T02:47:20.682Z,87.73
2023-01-13T02:50:13.494Z,87.77
2023-01-13T02:52:46.266Z,87.83
2023-01-13T02:55:03.901Z,87.72
2023-01-13T02:57:18.448Z,87.65
2023-01-13T02:59:31.465Z,87.75
2023-01-13T03:01:43.653Z,87.77
2023-01-13T03:03:55.675Z,87.58
2023-01-13T03:06:37.912Z,87.64
2023-01-13T03:08:55.082Z,87.70
2023-01-13T03:11:13.137Z,87.70
2023-01-13T03:13:38.119Z,87.59
2023-01-13T03:15:58.615Z,87.83
2023-01-13T03:18:28.951Z,87.63
2023-01-13T03:20:48.384Z,87.56
2023-01-13T03:23:33.188Z,87.63
2023-01-13T03:25:56.647Z,87.52
2023-01-13T03:28:19.765Z,87.50
2023-01-13T03:30:48.181Z,87.52
2023-01-13T03:33:06.536Z,87.65
2023-01-13T03:35:35.307Z,87.49
2023-01-13T03:37:53.696Z,87.58
2023-01-13T03:40:20.901Z,87.42
2023-01-13T03:42:36.883Z,87.42
2023-01-13T03:44:48.783Z,87.15
2023-01-13T03:47:21.063Z,87.21
2023-01-13T03:49:54.039Z,87.42
2023-01-13T03:52:12.341Z,87.36
2023-01-13T03:54:28.418Z,87.25
2023-01-13T03:56:47.641Z,87.16
2023-01-13T03:59:02.821Z,87.07
2023-01-13T04:01:19.307Z,86.94
2023-01-13T04:04:07.635Z,86.85
2023-01-13T04:06:47.608Z,87.13
2023-01-13T04:09:13.216Z,86.85
2023-01-13T04:11:43.127Z,86.80
2023-01-13T04:13:57.606Z,86.65
2023-01-13T04:16:11.961Z,86.62
2023-01-13T04:18:28.026Z,86.59
2023-01-13T04:20:41.555Z,86.31
2023-01-13T04:22:53.344Z,86.48
2023-01-13T04:25:05.748Z,86.33
2023-01-13T04:27:17.843Z,86.11
2023-01-13T04:29:29.632Z,86.02
2023-01-13T04:31:41.321Z,86.03
2023-01-13T04:33:53.212Z,86.00
2023-01-13T04:36:06.034Z,85.98
2023-01-13T04:38:21.316Z,85.90
2023-01-13T04:40:33.629Z,85.89
2023-01-13T04:42:45.599Z,85.80
2023-01-13T04:44:57.595Z,85.74
2023-01-13T04:47:09.386Z,85.65
2023-01-13T04:49:21.496Z,85.63
2023-01-13T04:51:35.005Z,85.51
2023-01-13T04:53:47.006Z,85.56
2023-01-13T04:55:58.587Z,85.52
2023-01-13T04:58:11.089Z,85.44
2023-01-13T05:00:23.716Z,85.42
2023-01-13T05:02:35.595Z,85.58
2023-01-13T05:04:48.371Z,85.57
2023-01-13T05:07:00.301Z,85.67
2023-01-13T05:09:13.596Z,85.66
2023-01-13T05:11:43.977Z,85.63
2023-01-13T05:14:14.893Z,85.66
2023-01-13T05:16:45.731Z,85.70
2023-01-13T05:18:57.625Z,85.81
2023-01-13T05:21:29.379Z,85.78
2023-01-13T05:24:17.110Z,86.12
2023-01-13T05:26:28.801Z,85.93
2023-01-13T05:28:40.791Z,86.08
2023-01-13T05:30:52.763Z,85.94
2023-01-13T05:33:05.294Z,85.94
2023-01-13T05:35:17.398Z,85.84
2023-01-13T05:37:29.285Z,85.94
2023-01-13T05:40:00.846Z,85.95
2023-01-13T05:42:31.776Z,85.90
2023-01-13T05:44:43.668Z,85.98
2023-01-13T05:46:55.569Z,85.82
2023-01-13T05:49:07.657Z,85.80
2023-01-13T05:51:22.727Z,85.87
2023-01-13T05:53:35.034Z,85.73
2023-01-13T05:55:47.241Z,85.73
2023-01-13T05:57:59.332Z,85.67
2023-01-13T06:00:12.247Z,85.68
2023-01-13T06:02:25.155Z,85.54
2023-01-13T06:04:37.456Z,85.56
2023-01-13T06:06:49.964Z,85.43
2023-01-13T06:09:01.560Z,85.41
2023-01-13T06:11:14.677Z,85.24
2023-01-13T06:13:26.977Z,85.30
2023-01-13T06:16:06.898Z,85.19
2023-01-13T06:18:24.656Z,85.19
2023-01-13T06:20:38.699Z,85.07
2023-01-13T06:22:55.523Z,85.13
2023-01-13T06:25:19.888Z,85.13
2023-01-13T06:27:31.957Z,85.02
2023-01-13T06:29:43.982Z,84.94
2023-01-13T06:31:56.486Z,84.83
2023-01-13T06:34:12.999Z,84.85
2023-01-13T06:36:48.971Z,84.68
2023-01-13T06:39:03.188Z,84.87
2023-01-13T06:41:16.011Z,84.70
2023-01-13T06:43:28.305Z,84.73
2023-01-13T06:45:45.700Z,84.62
2023-01-13T06:47:59.716Z,84.55
2023-01-13T06:50:11.984Z,84.37
2023-01-13T06:52:24.587Z,84.49
2023-01-13T06:54:36.371Z,84.43
2023-01-13T06:56:49.286Z,84.38
2023-01-13T06:59:00.865Z,84.45
2023-01-13T07:01:12.840Z,84.44
2023-01-13T07:03:24.867Z,84.37
2023-01-13T07:05:36.957Z,84.28
2023-01-13T07:07:48.643Z,84.23
2023-01-13T07:10:00.741Z,84.18
2023-01-13T07:12:12.737Z,84.30
2023-01-13T07:14:43.775Z,84.22
2023-01-13T07:16:55.774Z,84.30
2023-01-13T07:19:07.456Z,84.15
2023-01-13T07:21:20.270Z,84.23
2023-01-13T07:23:35.090Z,84.25
2023-01-13T07:25:46.928Z,84.16
2023-01-13T07:27:58.818Z,84.08
2023-01-13T07:30:11.579Z,84.09
2023-01-13T07:32:23.432Z,84.18
2023-01-13T07:34:35.618Z,84.09
2023-01-13T07:36:47.423Z,84.14
2023-01-13T07:38:59.413Z,84.02
2023-01-13T07:41:34.026Z,83.87
2023-01-13T07:43:45.926Z,83.82
2023-01-13T07:46:04.788Z,83.86
2023-01-13T07:48:16.873Z,83.84
2023-01-13T07:50:28.869Z,83.81
2023-01-13T07:52:40.874Z,83.71
2023-01-13T07:54:52.656Z,83.60
2023-01-13T07:57:04.853Z,83.49
2023-01-13T07:59:16.964Z,83.62
2023-01-13T08:01:29.345Z,83.53
2023-01-13T08:03:41.654Z,83.49
2023-01-13T08:05:53.663Z,83.45
2023-01-13T08:08:06.264Z,83.27
2023-01-13T08:10:17.946Z,83.39
2023-01-13T08:12:52.198Z,83.33
2023-01-13T08:15:10.275Z,83.16
2023-01-13T08:17:22.509Z,83.24
2023-01-13T08:19:34.905Z,83.01
2023-01-13T08:21:46.905Z,83.16
2023-01-13T08:23:58.999Z,82.91
2023-01-13T08:26:14.746Z,83.15
2023-01-13T08:28:26.677Z,83.06
2023-01-13T08:30:39.287Z,83.01
2023-01-13T08:32:51.072Z,82.94
2023-01-13T08:35:03.374Z,82.97
2023-01-13T08:37:15.268Z,82.78
2023-01-13T08:39:27.263Z,82.91
2023-01-13T08:41:58.736Z,82.94
2023-01-13T08:44:11.015Z,82.77
2023-01-13T08:46:23.253Z,82.71
2023-01-13T08:48:35.641Z,82.93
2023-01-13T08:50:47.922Z,82.68
2023-01-13T08:53:00.524Z,82.73
2023-01-13T08:55:12.421Z,82.71
2023-01-13T08:57:24.032Z,82.57
2023-01-13T08:59:36.204Z,82.30
2023-01-13T09:01:48.122Z,82.38
2023-01-13T09:04:00.073Z,82.25
2023-01-13T09:06:12.315Z,82.27
2023-01-13T09:08:24.725Z,82.18
2023-01-13T09:10:36.973Z,82.00
2023-01-13T09:13:07.630Z,81.82
2023-01-13T09:15:19.831Z,81.87
2023-01-13T09:17:31.722Z,81.73
2023-01-13T09:19:43.512Z,81.62
2023-01-13T09:21:56.665Z,81.65
2023-01-13T09:24:09.139Z,81.55
2023-01-13T09:26:21.778Z,81.40
2023-01-13T09:28:33.738Z,81.15
2023-01-13T09:30:46.010Z,80.87
2023-01-13T09:33:17.912Z,81.05
2023-01-13T09:35:29.798Z,80.86
2023-01-13T09:37:41.943Z,80.87
2023-01-13T09:39:53.889Z,80.70
2023-01-13T09:42:37.117Z,80.60
2023-01-13T09:45:04.878Z,80.25
2023-01-13T09:47:29.469Z,80.27
2023-01-13T09:49:43.108Z,80.47
2023-01-13T09:52:02.477Z,80.50
2023-01-13T09:54:32.465Z,80.50
2023-01-13T09:56:44.481Z,80.51
2023-01-13T09:58:56.272Z,80.27
2023-01-13T10:01:11.464Z,80.27
2023-01-13T10:03:29.070Z,80.46
2023-01-13T10:05:47.434Z,80.02
2023-01-13T10:08:05.606Z,80.01
2023-01-13T10:10:36.591Z,79.80
2023-01-13T10:13:09.272Z,80.30
2023-01-13T10:15:26.021Z,80.72
2023-01-13T10:17:53.483Z,80.75
2023-01-13T10:20:32.363Z,80.86
2023-01-13T10:23:11.896Z,80.87
2023-01-13T10:25:43.046Z,80.99
2023-01-13T10:28:01.616Z,81.21
2023-01-13T10:30:31.570Z,81.11
2023-01-13T10:32:50.056Z,81.39
2023-01-13T10:35:02.473Z,81.42
2023-01-13T10:37:22.466Z,81.62
2023-01-13T10:39:44.166Z,81.51
2023-01-13T10:42:07.614Z,82.03
2023-01-13T10:44:19.827Z,82.02
2023-01-13T10:46:49.853Z,81.85
2023-01-13T10:49:15.052Z,82.01
2023-01-13T10:51:31.370Z,82.16
2023-01-13T10:53:51.535Z,82.12
2023-01-13T10:56:04.857Z,82.03
2023-01-13T10:58:19.716Z,81.97
2023-01-13T11:00:35.039Z,81.79
2023-01-13T11:03:18.426Z,81.72
2023-01-13T11:05:30.319Z,81.66
2023-01-13T11:07:50.523Z,81.91
2023-01-13T11:10:27.382Z,81.59
2023-01-13T11:12:54.840Z,81.78
2023-01-13T11:15:14.038Z,81.56
2023-01-13T11:17:38.702Z,81.71
2023-01-13T11:20:00.318Z,81.89
2023-01-13T11:22:21.216Z,81.56
2023-01-13T11:24:51.005Z,81.50
2023-01-13T11:27:44.913Z,81.61
2023-01-13T11:30:15.333Z,81.84
2023-01-13T11:32:35.250Z,81.91
2023-01-13T11:34:55.281Z,81.82
2023-01-13T11:37:19.267Z,81.95
2023-01-13T11:39:55.539Z,81.80
2023-01-13T11:42:21.711Z,81.85
2023-01-13T11:44:46.462Z,81.67
2023-01-13T11:46:58.473Z,82.16
2023-01-13T11:49:22.567Z,81.96
2023-01-13T11:51:53.262Z,82.06
2023-01-13T11:54:34.246Z,81.93
2023-01-13T11:57:24.320Z,82.38
2023-01-13T12:00:03.149Z,82.37
2023-01-13T12:02:48.972Z,82.16
2023-01-13T12:05:15.375Z,82.42
2023-01-13T12:07:54.534Z,82.60
2023-01-13T12:10:18.124Z,82.69
2023-01-13T12:13:01.729Z,82.86
2023-01-13T12:15:52.822Z,82.86
2023-01-13T12:18:11.874Z,82.83
2023-01-13T12:20:24.894Z,82.83
2023-01-13T12:22:37.910Z,82.57
2023-01-13T12:24:57.916Z,82.24
2023-01-13T12:27:22.275Z,82.40
2023-01-13T12:29:36.834Z,82.29
2023-01-13T12:31:50.650Z,82.42
2023-01-13T12:34:27.245Z,82.26
2023-01-13T12:36:55.832Z,82.37
2023-01-13T12:39:45.712Z,82.22
2023-01-13T12:42:30.372Z,82.32
2023-01-13T12:45:11.189Z,82.34
2023-01-13T12:47:35.288Z,82.10
2023-01-13T12:49:47.517Z,82.07
2023-01-13T12:52:13.877Z,82.14
2023-01-13T12:54:32.297Z,82.19
2023-01-13T12:56:45.520Z,82.09
2023-01-13T12:59:19.628Z,82.15
2023-01-13T13:01:36.263Z,82.24
2023-01-13T13:04:08.103Z,81.83
2023-01-13T13:06:24.184Z,81.34
2023-01-13T13:08:51.232Z,81.32
2023-01-13T13:11:40.305Z,81.32
2023-01-13T13:13:52.393Z,81.43
2023-01-13T13:16:47.868Z,81.50
2023-01-13T13:19:17.724Z,81.29
2023-01-13T13:22:08.116Z,81.56
2023-01-13T13:24:20.008Z,81.55
2023-01-13T13:26:37.063Z,81.71
2023-01-13T13:29:07.652Z,81.59
2023-01-13T13:31:24.361Z,81.61
2023-01-13T13:33:49.970Z,81.51
2023-01-13T13:36:37.342Z,81.34
2023-01-13T13:39:24.312Z,80.86
2023-01-13T13:41:56.173Z,80.97
2023-01-13T13:44:46.052Z,81.33
2023-01-13T13:47:02.281Z,81.43
2023-01-13T13:49:20.295Z,81.31
2023-01-13T13:51:46.412Z,81.22
2023-01-13T13:53:59.688Z,81.48
2023-01-13T13:56:26.693Z,81.24
2023-01-13T13:58:38.674Z,81.54
2023-01-13T14:00:51.280Z,81.65
2023-01-13T14:03:21.196Z,81.85
2023-01-13T14:05:35.239Z,81.95
2023-01-13T14:07:50.113Z,84.40
2023-01-13T14:10:02.267Z,84.10
2023-01-13T14:12:20.176Z,81.97
2023-01-13T14:14:32.188Z,81.12
2023-01-13T14:16:44.297Z,81.11
2023-01-13T14:18:56.628Z,80.84
2023-01-13T14:21:25.676Z,81.22
2023-01-13T14:23:37.491Z,81.32
2023-01-13T14:25:51.197Z,81.48
2023-01-13T14:28:17.430Z,81.44
2023-01-13T14:30:29.519Z,81.81
2023-01-13T14:32:42.124Z,81.77
2023-01-13T14:34:59.296Z,81.64
2023-01-13T14:37:39.388Z,82.03
2023-01-13T14:39:51.398Z,81.97
2023-01-13T14:42:03.887Z,82.04
2023-01-13T14:44:25.974Z,82.07
2023-01-13T14:46:43.158Z,82.22
2023-01-13T14:49:01.345Z,82.19
2023-01-13T14:51:21.661Z,82.31
2023-01-13T14:53:46.903Z,82.39
2023-01-13T14:55:59.166Z,82.25
2023-01-13T14:58:28.710Z,82.29
2023-01-13T15:00:40.224Z,82.37
2023-01-13T15:02:58.248Z,82.46
2023-01-13T15:05:19.297Z,82.43
2023-01-13T15:07:32.539Z,82.39
2023-01-13T15:09:45.597Z,82.28
2023-01-13T15:11:58.919Z,82.32
2023-01-13T15:14:11.677Z,82.31
2023-01-13T15:16:27.487Z,82.36
2023-01-13T15:18:41.363Z,82.24
2023-01-13T15:20:53.460Z,81.92
2023-01-13T15:23:06.007Z,81.91
2023-01-13T15:25:19.030Z,81.65
2023-01-13T15:27:32.618Z,81.56
2023-01-13T15:29:45.471Z,81.51
2023-01-13T15:31:57.467Z,81.56
2023-01-13T15:34:12.559Z,81.18
2023-01-13T15:36:31.485Z,80.90
2023-01-13T15:38:43.074Z,80.72
2023-01-13T15:40:55.177Z,80.53
2023-01-13T15:43:25.802Z,80.53
2023-01-13T15:45:56.939Z,80.55
2023-01-13T15:48:08.773Z,80.34
2023-01-13T15:50:21.056Z,80.50
2023-01-13T15:52:33.443Z,79.82
2023-01-13T15:54:46.358Z,79.86
2023-01-13T15:56:58.559Z,79.87
2023-01-13T15:59:21.379Z,79.91
2023-01-13T16:01:33.537Z,79.78
2023-01-13T16:03:45.805Z,79.87
2023-01-13T16:05:58.116Z,80.13
2023-01-13T16:08:21.945Z,79.99
2023-01-13T16:10:34.187Z,79.69
2023-01-13T16:12:46.590Z,79.59
2023-01-13T16:14:59.609Z,79.61
2023-01-13T16:17:17.102Z,79.40
2023-01-13T16:19:29.138Z,79.73
2023-01-13T16:21:40.826Z,81.65
2023-01-13T16:23:53.953Z,81.05
2023-01-13T16:26:11.484Z,79.29
2023-01-13T16:28:28.252Z,78.96
2023-01-13T16:30:40.699Z,79.17
2023-01-13T16:32:53.628Z,78.98
2023-01-13T16:35:05.927Z,79.03
2023-01-13T16:37:21.189Z,79.05
2023-01-13T16:39:33.616Z,79.16
2023-01-13T16:41:45.652Z,79.10
2023-01-13T16:43:57.299Z,79.22
2023-01-13T16:46:27.940Z,79.01
2023-01-13T16:48:39.934Z,79.20
2023-01-13T16:50:51.932Z,79.42
2023-01-13T16:53:04.853Z,79.07
2023-01-13T16:55:16.665Z,79.01
2023-01-13T16:57:29.045Z,79.16
2023-01-13T16:59:40.837Z,79.04
2023-01-13T17:01:53.588Z,78.94
2023-01-13T17:04:07.001Z,79.11
2023-01-13T17:06:24.717Z,78.90
2023-01-13T17:08:36.576Z,78.98
2023-01-13T17:10:50.722Z,78.94
2023-01-13T17:13:14.713Z,78.77
2023-01-13T17:15:27.905Z,78.95
2023-01-13T17:17:43.299Z,78.87
2023-01-13T17:19:55.372Z,78.98
2023-01-13T17:22:07.108Z,78.69
2023-01-13T17:24:19.623Z,78.80
2023-01-13T17:26:37.458Z,78.87
2023-01-13T17:28:49.339Z,78.78
2023-01-13T17:31:01.131Z,78.83
2023-01-13T17:33:13.533Z,78.90
2023-01-13T17:35:25.540Z,78.92
2023-01-13T17:37:37.299Z,78.98
2023-01-13T17:39:51.094Z,78.90
2023-01-13T17:42:02.839Z,78.88
2023-01-13T17:44:15.761Z,78.73
2023-01-13T17:46:27.968Z,78.60
2023-01-13T17:48:40.372Z,78.83
2023-01-13T17:50:53.433Z,78.76
2023-01-13T17:53:05.583Z,78.69
2023-01-13T17:55:20.556Z,78.76
2023-01-13T17:57:32.644Z,78.64
2023-01-13T17:59:47.095Z,78.80
2023-01-13T18:01:59.247Z,78.72
2023-01-13T18:04:16.934Z,78.59
2023-01-13T18:06:29.478Z,78.52
2023-01-13T18:08:41.435Z,78.38
2023-01-13T18:10:54.432Z,78.31
2023-01-13T18:13:08.067Z,78.38
2023-01-13T18:15:20.063Z,78.44
2023-01-13T18:17:32.157Z,78.31
2023-01-13T18:20:14.580Z,78.29
2023-01-13T18:22:46.839Z,78.02
2023-01-13T18:25:17.679Z,77.97
2023-01-13T18:27:35.893Z,78.10
2023-01-13T18:29:53.309Z,77.82
2023-01-13T18:32:10.208Z,77.60
2023-01-13T18:34:26.374Z,77.62
2023-01-13T18:36:43.234Z,77.53
2023-01-13T18:38:58.782Z,77.42
2023-01-13T18:41:32.527Z,77.51
2023-01-13T18:43:47.877Z,77.44
2023-01-13T18:46:03.510Z,77.23
2023-01-13T18:48:18.826Z,77.17
2023-01-13T18:50:38.464Z,76.90
2023-01-13T18:52:55.038Z,77.14
2023-01-13T18:55:11.682Z,77.06
2023-01-13T18:57:27.384Z,76.79
2023-01-13T18:59:42.482Z,76.91
2023-01-13T19:01:59.264Z,76.85
2023-01-13T19:04:17.649Z,77.00
2023-01-13T19:06:34.926Z,77.13
2023-01-13T19:08:54.008Z,76.93
2023-01-13T19:11:09.591Z,77.06
2023-01-13T19:13:30.938Z,77.23
2023-01-13T19:15:47.320Z,77.25
2023-01-13T19:18:15.587Z,77.23
2023-01-13T19:20:31.566Z,77.27
2023-01-13T19:22:55.057Z,77.41
2023-01-13T19:25:15.319Z,77.41
2023-01-13T19:27:31.418Z,77.32
2023-01-13T19:29:52.961Z,77.20
2023-01-13T19:32:08.355Z,77.21
2023-01-13T19:34:24.393Z,77.29
2023-01-13T19:36:36.398Z,77.29
2023-01-13T19:38:49.949Z,77.13
2023-01-13T19:41:32.850Z,77.15
2023-01-13T19:44:03.158Z,77.11
2023-01-13T19:46:16.239Z,77.19
2023-01-13T19:48:28.025Z,77.04
2023-01-13T19:50:40.580Z,77.11
2023-01-13T19:52:52.368Z,76.93
2023-01-13T19:55:04.219Z,76.88
2023-01-13T19:57:15.954Z,76.98
2023-01-13T19:59:32.758Z,76.77
2023-01-13T20:01:44.898Z,76.80
2023-01-13T20:04:02.998Z,76.76
2023-01-13T20:06:14.891Z,76.58
2023-01-13T20:08:26.779Z,76.82
2023-01-13T20:10:39.193Z,76.70
2023-01-13T20:12:52.024Z,76.94
2023-01-13T20:15:05.993Z,76.77
2023-01-13T20:17:20.353Z,76.71
2023-01-13T20:19:32.593Z,76.71
2023-01-13T20:21:44.895Z,76.93
2023-01-13T20:23:57.093Z,76.80
2023-01-13T20:26:09.028Z,76.79
2023-01-13T20:28:20.879Z,76.57
2023-01-13T20:30:32.875Z,76.59
2023-01-13T20:32:45.185Z,76.58
2023-01-13T20:34:57.168Z,76.48
2023-01-13T20:37:08.958Z,76.35
2023-01-13T20:39:23.206Z,76.18
2023-01-13T20:41:55.407Z,76.25
2023-01-13T20:44:07.629Z,76.22
2023-01-13T20:46:20.307Z,76.49
2023-01-13T20:48:31.971Z,76.45
2023-01-13T20:50:44.478Z,76.37
2023-01-13T20:52:56.486Z,76.27
2023-01-13T20:55:09.697Z,76.08
2023-01-13T20:57:21.692Z,76.13
2023-01-13T20:59:34.205Z,76.12
2023-01-13T21:01:46.055Z,75.99
2023-01-13T21:04:00.241Z,76.00
2023-01-13T21:06:12.262Z,75.72
2023-01-13T21:08:24.331Z,75.49
2023-01-13T21:10:36.528Z,75.58
2023-01-13T21:13:09.513Z,75.73
2023-01-13T21:15:22.911Z,75.45
2023-01-13T21:17:53.435Z,75.46
2023-01-13T21:20:11.293Z,75.66
2023-01-13T21:22:23.193Z,75.52
2023-01-13T21:24:34.883Z,75.58
2023-01-13T21:26:48.825Z,75.57
2023-01-13T21:29:02.352Z,75.56
2023-01-13T21:31:14.031Z,75.69
2023-01-13T21:33:26.443Z,75.59
2023-01-13T21:35:41.719Z,75.75
2023-01-13T21:37:54.375Z,75.93
2023-01-13T21:40:07.937Z,75.87
2023-01-13T21:42:38.491Z,75.89
2023-01-13T21:45:08.833Z,76.11
2023-01-13T21:47:40.366Z,76.01
2023-01-13T21:49:52.391Z,76.16
2023-01-13T21:52:06.411Z,76.28
2023-01-13T21:54:18.655Z,76.32
2023-01-13T21:56:30.253Z,76.29
2023-01-13T21:58:41.649Z,76.06
2023-01-13T22:00:54.224Z,76.24
2023-01-13T22:03:08.235Z,76.32
2023-01-13T22:05:22.616Z,76.54
2023-01-13T22:07:35.484Z,76.32
2023-01-13T22:09:47.278Z,76.18
2023-01-13T22:12:00.612Z,76.58
2023-01-13T22:14:14.032Z,76.45
2023-01-13T22:16:26.246Z,76.56
2023-01-13T22:18:38.547Z,76.42
2023-01-13T22:20:50.689Z,76.88
2023-01-13T22:23:02.929Z,76.79
2023-01-13T22:25:16.873Z,76.90
2023-01-13T22:27:30.814Z,76.91
2023-01-13T22:29:42.911Z,76.85
2023-01-13T22:31:54.745Z,77.08
2023-01-13T22:34:06.385Z,77.03
2023-01-13T22:36:18.600Z,77.06
2023-01-13T22:38:31.401Z,77.23
2023-01-13T22:40:43.396Z,77.41
2023-01-13T22:42:55.190Z,77.25
2023-01-13T22:45:10.799Z,77.36
2023-01-13T22:47:22.965Z,77.60
2023-01-13T22:49:34.957Z,77.63
2023-01-13T22:51:47.258Z,77.24
2023-01-13T22:53:59.256Z,77.50
2023-01-13T22:56:20.355Z,77.55
2023-01-13T22:58:32.765Z,77.66
2023-01-13T23:00:44.869Z,77.82
2023-01-13T23:02:56.963Z,77.77
2023-01-13T23:05:08.965Z,77.87
2023-01-13T23:07:20.849Z,77.62
2023-01-13T23:09:32.641Z,77.79
2023-01-13T23:11:46.236Z,77.86
2023-01-13T23:14:04.656Z,77.86
2023-01-13T23:16:21.273Z,77.89
2023-01-13T23:18:34.032Z,77.99
2023-01-13T23:20:46.128Z,77.91
2023-01-13T23:22:59.404Z,78.08
2023-01-13T23:25:11.808Z,78.08
2023-01-13T23:27:24.057Z,78.35
2023-01-13T23:29:35.539Z,78.19
2023-01-13T23:31:47.904Z,78.21
2023-01-13T23:34:00.660Z,78.45
2023-01-13T23:36:19.153Z,78.59
2023-01-13T23:38:31.813Z,78.41
2023-01-13T23:40:45.550Z,78.42
2023-01-13T23:42:57.750Z,78.17
2023-01-13T23:45:10.564Z,78.43
2023-01-13T23:47:22.152Z,78.43
2023-01-13T23:49:33.939Z,78.40
2023-01-13T23:51:45.624Z,78.48
2023-01-13T23:53:59.444Z,78.56
2023-01-13T23:56:14.618Z,78.66
2023-01-13T23:58:27.343Z,78.52
